Terminal Aerodrome Forecast
Issued by NWS

Home | Current Version | Previous Version | Text Only | Print | Product List | Glossary On
Versions: 1 2 3 4 5 6 7 8 9 10 11 12 13 14 15 16 17 18 19 20 21 22 23 24 25 26 27 28 29 30 31 32 33 34 35 36 37
000
FTUS41 KBUF 041120
TAFJHW
TAF
KJHW 041120Z 0412/0512 VRB03KT P6SM SCT020
     FM041300 VRB03KT P6SM BKN200
     FM041500 VRB03KT P6SM BKN060
     FM041800 03005KT P6SM VCSH BKN045
     FM050200 VRB03KT P6SM BKN045
     FM050800 VRB03KT P6SM OVC035
      AMD LTD TO CLD VIS AND WIND=

USA.gov is the U.S. government's official web portal to all federal, state and local government web resources and services.